createdAt,value
2023-02-19T00:01:43.295Z,0.75
2023-02-19T00:04:48.456Z,0.73
2023-02-19T00:07:55.105Z,0.78
2023-02-19T00:11:03.410Z,0.78
2023-02-19T00:14:08.882Z,0.73
2023-02-19T00:17:14.275Z,0.71
2023-02-19T00:20:19.760Z,0.72
2023-02-19T00:23:27.256Z,0.69
2023-02-19T00:26:32.830Z,0.67
2023-02-19T00:29:38.177Z,0.69
2023-02-19T00:32:43.488Z,0.61
2023-02-19T00:35:49.859Z,0.63
2023-02-19T00:38:59.166Z,0.64
2023-02-19T00:42:04.379Z,0.61
2023-02-19T00:45:12.119Z,0.65
2023-02-19T00:48:17.591Z,0.55
2023-02-19T00:51:24.066Z,0.53
2023-02-19T00:54:31.572Z,0.55
2023-02-19T00:57:37.354Z,0.52
2023-02-19T01:00:42.362Z,0.48
2023-02-19T01:03:47.809Z,0.52
2023-02-19T01:06:52.958Z,0.54
2023-02-19T01:09:59.492Z,0.48
2023-02-19T01:13:04.677Z,0.44
2023-02-19T01:16:14.388Z,0.41
2023-02-19T01:19:19.833Z,0.38
2023-02-19T01:22:25.101Z,0.41
2023-02-19T01:25:32.502Z,0.38
2023-02-19T01:28:37.707Z,0.36
2023-02-19T01:31:43.440Z,0.37
2023-02-19T01:34:48.758Z,0.31
2023-02-19T01:37:54.040Z,0.31
2023-02-19T01:41:02.641Z,0.33
2023-02-19T01:44:09.406Z,0.33
2023-02-19T01:47:14.636Z,0.26
2023-02-19T01:50:20.242Z,0.28
2023-02-19T01:53:27.502Z,0.27
2023-02-19T01:56:38.379Z,0.29
2023-02-19T01:59:44.926Z,0.30
2023-02-19T02:02:54.284Z,0.29
2023-02-19T02:06:03.246Z,0.29
2023-02-19T02:09:26.080Z,0.27
2023-02-19T02:12:35.407Z,0.23
2023-02-19T02:15:46.304Z,0.22
2023-02-19T02:19:00.087Z,0.24
2023-02-19T02:22:12.582Z,0.19
2023-02-19T02:25:45.598Z,0.15
2023-02-19T02:29:22.962Z,0.16
2023-02-19T02:32:34.742Z,0.17
2023-02-19T02:35:44.251Z,0.19
2023-02-19T02:38:50.594Z,0.19
2023-02-19T02:42:18.755Z,0.17
2023-02-19T02:45:37.420Z,0.23
2023-02-19T02:48:55.560Z,0.22
2023-02-19T02:52:22.134Z,0.19
2023-02-19T02:55:26.415Z,0.18
2023-02-19T02:58:32.154Z,0.13
2023-02-19T03:02:14.863Z,0.09
2023-02-19T03:05:41.101Z,0.18
2023-02-19T03:08:50.842Z,0.12
2023-02-19T03:12:14.789Z,0.05
2023-02-19T03:15:39.810Z,0.13
2023-02-19T03:19:04.308Z,0.10
2023-02-19T03:22:13.854Z,0.14
2023-02-19T03:25:39.287Z,0.09
2023-02-19T03:29:03.846Z,0.15
2023-02-19T03:32:13.689Z,0.10
2023-02-19T03:35:21.034Z,0.11
2023-02-19T03:38:33.741Z,0.10
2023-02-19T03:41:45.134Z,0.08
2023-02-19T03:45:00.412Z,0.13
2023-02-19T03:48:23.729Z,0.15
2023-02-19T03:51:33.476Z,0.19
2023-02-19T03:54:47.564Z,0.20
2023-02-19T03:57:57.946Z,0.25
2023-02-19T04:01:06.411Z,0.27
2023-02-19T04:04:18.480Z,0.26
2023-02-19T04:07:24.186Z,0.30
2023-02-19T04:10:31.991Z,0.24
2023-02-19T04:13:42.357Z,0.22
2023-02-19T04:16:55.830Z,0.24
2023-02-19T04:20:02.446Z,0.26
2023-02-19T04:23:08.039Z,0.30
2023-02-19T04:26:16.178Z,0.29
2023-02-19T04:29:21.083Z,0.27
2023-02-19T04:32:26.521Z,0.37
2023-02-19T04:35:31.413Z,0.39
2023-02-19T04:38:39.116Z,0.43
2023-02-19T04:41:45.891Z,0.39
2023-02-19T04:44:52.296Z,0.42
2023-02-19T04:47:58.811Z,0.51
2023-02-19T04:51:08.202Z,0.46
2023-02-19T04:54:13.376Z,0.55
2023-02-19T04:57:20.092Z,0.47
2023-02-19T05:00:26.004Z,0.41
2023-02-19T05:03:31.786Z,0.38
2023-02-19T05:06:36.573Z,0.27
2023-02-19T05:09:42.923Z,0.31
2023-02-19T05:12:49.468Z,0.28
2023-02-19T05:15:59.101Z,0.21
2023-02-19T05:19:04.370Z,0.20
2023-02-19T05:22:09.819Z,0.22
2023-02-19T05:25:18.149Z,0.16
2023-02-19T05:28:34.334Z,0.18
2023-02-19T05:31:39.706Z,0.18
2023-02-19T05:34:44.835Z,0.17
2023-02-19T05:37:49.962Z,0.10
2023-02-19T05:40:55.127Z,0.08
2023-02-19T05:44:02.179Z,0.08
2023-02-19T05:47:08.361Z,0.09
2023-02-19T05:50:13.550Z,0.03
2023-02-19T05:53:20.465Z,0.07
2023-02-19T05:56:33.507Z,0.00
2023-02-19T05:59:42.433Z,0.01
2023-02-19T06:02:48.231Z,0.02
2023-02-19T06:05:53.476Z,0.02
2023-02-19T06:08:59.396Z,-0.01
2023-02-19T06:12:05.317Z,0.03
2023-02-19T06:15:13.775Z,-0.05
2023-02-19T06:18:19.604Z,-0.00
2023-02-19T06:21:24.429Z,0.01
2023-02-19T06:24:30.074Z,-0.00
2023-02-19T06:27:35.273Z,-0.02
2023-02-19T06:30:42.111Z,-0.04
2023-02-19T06:33:47.427Z,-0.03
2023-02-19T06:36:53.224Z,-0.01
2023-02-19T06:39:58.893Z,-0.03
2023-02-19T06:43:04.206Z,-0.03
2023-02-19T06:46:12.705Z,-0.04
2023-02-19T06:49:18.144Z,-0.00
2023-02-19T06:52:25.076Z,-0.03
2023-02-19T06:55:30.257Z,0.00
2023-02-19T06:58:36.016Z,-0.02
2023-02-19T07:01:42.794Z,-0.01
2023-02-19T07:04:48.032Z,0.01
2023-02-19T07:07:53.329Z,0.02
2023-02-19T07:11:00.089Z,0.07
2023-02-19T07:14:07.767Z,0.04
2023-02-19T07:17:16.050Z,0.14
2023-02-19T07:20:23.174Z,0.13
2023-02-19T07:23:30.534Z,0.07
2023-02-19T07:26:38.054Z,0.13
2023-02-19T07:29:43.846Z,0.10
2023-02-19T07:32:52.360Z,0.14
2023-02-19T07:35:59.932Z,0.20
2023-02-19T07:39:05.032Z,0.18
2023-02-19T07:42:13.371Z,0.17
2023-02-19T07:45:18.916Z,0.19
2023-02-19T07:48:26.723Z,0.19
2023-02-19T07:51:33.026Z,0.19
2023-02-19T07:54:38.295Z,0.21
2023-02-19T07:57:47.725Z,0.30
2023-02-19T08:00:53.045Z,0.25
2023-02-19T08:04:00.930Z,0.28
2023-02-19T08:07:06.345Z,0.28
2023-02-19T08:10:30.492Z,0.32
2023-02-19T08:13:35.613Z,0.32
2023-02-19T08:16:43.211Z,0.32
2023-02-19T08:19:50.904Z,0.33
2023-02-19T08:22:58.284Z,0.38
2023-02-19T08:26:03.716Z,0.40
2023-02-19T08:29:09.557Z,0.41
2023-02-19T08:32:15.447Z,0.43
2023-02-19T08:35:29.764Z,0.41
2023-02-19T08:38:38.152Z,0.48
2023-02-19T08:41:44.238Z,0.48
2023-02-19T08:44:49.335Z,0.51
2023-02-19T08:47:55.353Z,0.56
2023-02-19T08:51:04.851Z,0.56
2023-02-19T08:54:10.019Z,0.60
2023-02-19T08:57:15.210Z,0.62
2023-02-19T09:00:21.476Z,0.62
2023-02-19T09:03:26.786Z,0.64
2023-02-19T09:06:33.472Z,0.67
2023-02-19T09:09:39.437Z,0.68
2023-02-19T09:12:45.988Z,0.70
2023-02-19T09:15:50.864Z,0.79
2023-02-19T09:18:57.333Z,0.82
2023-02-19T09:22:10.354Z,0.83
2023-02-19T09:25:15.589Z,0.85
2023-02-19T09:28:21.975Z,0.91
2023-02-19T09:31:27.331Z,0.92
2023-02-19T09:34:35.824Z,0.95
2023-02-19T09:37:43.608Z,0.97
2023-02-19T09:40:49.913Z,1.09
2023-02-19T09:43:55.699Z,1.13
2023-02-19T09:47:02.333Z,1.09
2023-02-19T09:50:11.137Z,1.09
2023-02-19T09:53:22.079Z,1.16
2023-02-19T09:56:28.308Z,1.06
2023-02-19T09:59:42.044Z,1.18
2023-02-19T10:02:47.405Z,1.27
2023-02-19T10:05:53.013Z,1.37
2023-02-19T10:09:07.186Z,1.41
2023-02-19T10:12:17.350Z,1.35
2023-02-19T10:15:27.118Z,1.36
2023-02-19T10:18:39.615Z,1.41
2023-02-19T10:21:44.923Z,1.48
2023-02-19T10:24:53.876Z,1.44
2023-02-19T10:28:00.572Z,1.45
2023-02-19T10:31:07.142Z,1.48
2023-02-19T10:34:22.511Z,1.63
2023-02-19T10:37:29.508Z,1.62
2023-02-19T10:40:36.273Z,1.65
2023-02-19T10:43:45.530Z,1.57
2023-02-19T10:46:55.292Z,1.58
2023-02-19T10:50:03.407Z,1.68
2023-02-19T10:53:22.096Z,1.70
2023-02-19T10:56:31.488Z,1.67
2023-02-19T10:59:37.931Z,1.80
2023-02-19T11:02:53.506Z,1.79
2023-02-19T11:06:03.792Z,1.78
2023-02-19T11:09:26.132Z,1.87
2023-02-19T11:12:34.799Z,1.97
2023-02-19T11:15:39.825Z,2.03
2023-02-19T11:18:53.371Z,2.03
2023-02-19T11:22:00.346Z,2.07
2023-02-19T11:25:10.936Z,2.01
2023-02-19T11:28:29.251Z,2.15
2023-02-19T11:31:37.836Z,2.09
2023-02-19T11:34:43.611Z,2.06
2023-02-19T11:37:59.440Z,2.11
2023-02-19T11:41:11.516Z,2.09
2023-02-19T11:44:30.467Z,2.08
2023-02-19T11:48:06.527Z,2.16
2023-02-19T11:51:32.481Z,2.18
2023-02-19T11:54:51.195Z,2.20
2023-02-19T11:58:08.006Z,2.29
2023-02-19T12:01:23.519Z,2.29
2023-02-19T12:05:00.386Z,2.31
2023-02-19T12:08:28.672Z,2.34
2023-02-19T12:11:46.433Z,2.42
2023-02-19T12:15:20.243Z,2.55
2023-02-19T12:18:51.726Z,2.62
2023-02-19T12:22:22.026Z,2.59
2023-02-19T12:25:44.265Z,2.51
2023-02-19T12:29:06.418Z,2.57
2023-02-19T12:32:43.322Z,2.47
2023-02-19T12:35:54.088Z,2.45
2023-02-19T12:39:04.851Z,2.54
2023-02-19T12:42:29.690Z,2.66
2023-02-19T12:45:39.114Z,2.54
2023-02-19T12:48:48.732Z,2.64
2023-02-19T12:52:00.484Z,2.62
2023-02-19T12:55:15.180Z,2.70
2023-02-19T12:58:27.068Z,2.64
2023-02-19T13:01:45.394Z,2.83
2023-02-19T13:04:56.054Z,2.87
2023-02-19T13:08:06.078Z,2.74
2023-02-19T13:11:15.302Z,2.80
2023-02-19T13:14:25.742Z,2.81
2023-02-19T13:17:37.417Z,2.83
2023-02-19T13:20:44.509Z,2.84
2023-02-19T13:23:59.588Z,2.76
2023-02-19T13:27:14.677Z,2.86
2023-02-19T13:30:35.074Z,2.71
2023-02-19T13:33:47.911Z,2.70
2023-02-19T13:36:53.260Z,2.69
2023-02-19T13:40:03.854Z,2.84
2023-02-19T13:43:26.531Z,2.79
2023-02-19T13:46:38.657Z,2.68
2023-02-19T13:49:45.086Z,2.72
2023-02-19T13:52:50.938Z,2.74
2023-02-19T13:55:57.442Z,2.63
2023-02-19T13:59:29.759Z,2.65
2023-02-19T14:02:36.389Z,2.72
2023-02-19T14:06:02.798Z,2.64
2023-02-19T14:09:48.277Z,2.59
2023-02-19T14:12:54.824Z,2.52
2023-02-19T14:16:00.424Z,2.41
2023-02-19T14:19:06.073Z,2.63
2023-02-19T14:23:04.692Z,2.58
2023-02-19T14:26:10.423Z,2.66
2023-02-19T14:29:17.787Z,2.50
2023-02-19T14:32:23.168Z,2.41
2023-02-19T14:35:32.340Z,2.44
2023-02-19T14:38:39.959Z,2.33
2023-02-19T14:41:47.679Z,2.33
2023-02-19T14:45:30.036Z,2.42
2023-02-19T14:48:41.907Z,2.47
2023-02-19T14:51:49.561Z,2.46
2023-02-19T14:54:57.317Z,2.38
2023-02-19T14:58:05.196Z,2.32
2023-02-19T15:01:27.431Z,2.22
2023-02-19T15:04:37.138Z,2.28
2023-02-19T15:07:44.026Z,2.38
2023-02-19T15:10:49.367Z,2.21
2023-02-19T15:13:57.580Z,2.23
2023-02-19T15:17:05.562Z,2.28
2023-02-19T15:20:14.231Z,2.39
2023-02-19T15:23:23.859Z,2.28
2023-02-19T15:26:34.883Z,2.31
2023-02-19T15:29:47.656Z,2.30
2023-02-19T15:33:01.431Z,2.07
2023-02-19T15:36:09.377Z,2.18
2023-02-19T15:39:20.642Z,2.22
2023-02-19T15:42:29.002Z,2.03
2023-02-19T15:45:41.863Z,2.00
2023-02-19T15:48:51.464Z,2.08
2023-02-19T15:52:00.898Z,2.18
2023-02-19T15:55:13.051Z,2.05
2023-02-19T15:58:22.240Z,1.96
2023-02-19T16:01:28.583Z,2.07
2023-02-19T16:04:38.293Z,2.04
2023-02-19T16:07:44.363Z,2.03
2023-02-19T16:11:00.303Z,1.88
2023-02-19T16:14:23.420Z,1.87
2023-02-19T16:17:29.272Z,1.88
2023-02-19T16:20:37.222Z,1.77
2023-02-19T16:23:44.522Z,1.79
2023-02-19T16:26:51.203Z,1.84
2023-02-19T16:29:57.720Z,1.68
2023-02-19T16:33:22.622Z,1.61
2023-02-19T16:36:41.483Z,1.65
2023-02-19T16:39:47.106Z,1.65
2023-02-19T16:43:26.974Z,1.48
2023-02-19T16:46:32.056Z,1.49
2023-02-19T16:49:37.434Z,1.53
2023-02-19T16:52:54.308Z,1.51
2023-02-19T16:56:00.306Z,1.39
2023-02-19T16:59:07.233Z,1.50
2023-02-19T17:02:18.162Z,1.36
2023-02-19T17:05:24.304Z,1.30
2023-02-19T17:08:37.092Z,1.26
2023-02-19T17:11:42.270Z,1.36
2023-02-19T17:14:48.189Z,1.23
2023-02-19T17:17:53.433Z,1.15
2023-02-19T17:21:03.798Z,1.14
2023-02-19T17:24:12.560Z,1.18
2023-02-19T17:27:19.615Z,1.33
2023-02-19T17:30:30.305Z,1.30
2023-02-19T17:33:35.733Z,1.16
2023-02-19T17:36:42.964Z,1.30
2023-02-19T17:39:49.591Z,1.20
2023-02-19T17:43:04.375Z,1.13
2023-02-19T17:46:16.791Z,1.08
2023-02-19T17:49:24.527Z,1.12
2023-02-19T17:52:29.892Z,1.09
2023-02-19T17:55:36.570Z,0.98
2023-02-19T17:58:42.369Z,0.93
2023-02-19T18:01:49.658Z,0.90
2023-02-19T18:04:54.833Z,0.88
2023-02-19T18:08:00.451Z,0.97
2023-02-19T18:11:07.870Z,0.91
2023-02-19T18:14:13.980Z,0.87
2023-02-19T18:17:19.240Z,0.94
2023-02-19T18:20:25.892Z,0.99
2023-02-19T18:23:31.411Z,0.95
2023-02-19T18:26:37.869Z,0.88
2023-02-19T18:29:43.303Z,0.84
2023-02-19T18:32:48.892Z,0.87
2023-02-19T18:35:54.255Z,0.82
2023-02-19T18:39:00.139Z,0.84
2023-02-19T18:42:06.875Z,0.86
2023-02-19T18:45:13.104Z,0.80
2023-02-19T18:48:18.405Z,0.76
2023-02-19T18:51:24.562Z,0.78
2023-02-19T18:54:30.581Z,0.72
2023-02-19T18:57:37.154Z,0.72
2023-02-19T19:00:42.605Z,0.82
2023-02-19T19:03:49.453Z,0.76
2023-02-19T19:06:54.614Z,0.73
2023-02-19T19:10:00.204Z,0.79
2023-02-19T19:13:09.142Z,0.75
2023-02-19T19:16:14.615Z,0.67
2023-02-19T19:19:21.177Z,0.69
2023-02-19T19:22:26.776Z,0.64
2023-02-19T19:25:34.273Z,0.67
2023-02-19T19:28:44.383Z,0.53
2023-02-19T19:31:49.749Z,0.53
2023-02-19T19:34:55.064Z,0.53
2023-02-19T19:38:00.396Z,0.48
2023-02-19T19:41:06.492Z,0.49
2023-02-19T19:44:15.451Z,0.53
2023-02-19T19:47:20.648Z,0.51
2023-02-19T19:50:25.844Z,0.44
2023-02-19T19:53:31.028Z,0.45
2023-02-19T19:56:42.423Z,0.49
2023-02-19T19:59:52.166Z,0.48
2023-02-19T20:02:57.585Z,0.43
2023-02-19T20:06:02.777Z,0.40
2023-02-19T20:09:07.698Z,0.37
2023-02-19T20:12:14.798Z,0.39
2023-02-19T20:15:24.377Z,0.37
2023-02-19T20:18:30.555Z,0.33
2023-02-19T20:21:35.762Z,0.29
2023-02-19T20:24:40.962Z,0.32
2023-02-19T20:27:45.901Z,0.29
2023-02-19T20:30:52.838Z,0.30
2023-02-19T20:33:58.088Z,0.30
2023-02-19T20:37:03.470Z,0.33
2023-02-19T20:40:09.783Z,0.27
2023-02-19T20:43:15.957Z,0.31
2023-02-19T20:46:23.535Z,0.31
2023-02-19T20:49:30.201Z,0.28
2023-02-19T20:52:35.443Z,0.27
2023-02-19T20:55:41.302Z,0.25
2023-02-19T20:58:49.920Z,0.28
2023-02-19T21:01:56.531Z,0.22
2023-02-19T21:05:02.176Z,0.17
2023-02-19T21:08:07.720Z,0.18
2023-02-19T21:11:13.840Z,0.16
2023-02-19T21:14:19.290Z,0.07
2023-02-19T21:17:27.044Z,0.09
2023-02-19T21:20:32.162Z,0.12
2023-02-19T21:23:37.475Z,0.03
2023-02-19T21:26:44.760Z,0.02
2023-02-19T21:29:49.962Z,0.02
2023-02-19T21:32:56.610Z,0.02
2023-02-19T21:36:03.873Z,0.03
2023-02-19T21:39:09.965Z,-0.03
2023-02-19T21:42:17.786Z,-0.08
2023-02-19T21:45:24.265Z,-0.06
2023-02-19T21:48:31.109Z,-0.06
2023-02-19T21:51:38.620Z,-0.06
2023-02-19T21:54:43.629Z,-0.05
2023-02-19T21:57:48.763Z,-0.11
2023-02-19T22:00:56.448Z,-0.20
2023-02-19T22:04:05.177Z,-0.18
2023-02-19T22:07:10.600Z,-0.18
2023-02-19T22:10:16.771Z,-0.14
2023-02-19T22:13:21.968Z,-0.20
2023-02-19T22:16:28.811Z,-0.20
2023-02-19T22:19:35.508Z,-0.25
2023-02-19T22:22:41.346Z,-0.22
2023-02-19T22:25:46.436Z,-0.25
2023-02-19T22:28:51.449Z,-0.26
2023-02-19T22:31:56.798Z,-0.24
2023-02-19T22:35:02.972Z,-0.30
2023-02-19T22:38:08.298Z,-0.28
2023-02-19T22:41:13.785Z,-0.33
2023-02-19T22:44:19.943Z,-0.29
2023-02-19T22:47:25.016Z,-0.34
2023-02-19T22:50:31.719Z,-0.37
2023-02-19T22:53:36.877Z,-0.33
2023-02-19T22:56:42.265Z,-0.36
2023-02-19T22:59:47.310Z,-0.38
2023-02-19T23:02:53.363Z,-0.36
2023-02-19T23:05:59.872Z,-0.37
2023-02-19T23:09:10.995Z,-0.34
2023-02-19T23:12:16.227Z,-0.42
2023-02-19T23:15:21.820Z,-0.40
2023-02-19T23:18:27.000Z,-0.40
2023-02-19T23:21:34.958Z,-0.46
2023-02-19T23:24:40.028Z,-0.41
2023-02-19T23:27:45.133Z,-0.40
2023-02-19T23:30:50.458Z,-0.39
2023-02-19T23:33:56.239Z,-0.39
2023-02-19T23:37:03.242Z,-0.40
2023-02-19T23:40:09.244Z,-0.40
2023-02-19T23:43:14.611Z,-0.38
2023-02-19T23:46:21.552Z,-0.40
2023-02-19T23:49:26.813Z,-0.46
2023-02-19T23:52:36.057Z,-0.40
2023-02-19T23:55:41.922Z,-0.37
2023-02-19T23:58:46.921Z,-0.34
